Time;durP1;ratioP1;P1;durP2;ratioP2;P2;SDS_P1;SDS_P2;PMS_P1;PMS_P2;Temp;Humidity;BMP_temperature;BMP_pressure;BME280_temperature;BME280_humidity;BME280_pressure;Samples;Min_cycle;Max_cycle;Signal;HPM_P1;HPM_P2
2022/09/27 00:00:10;;;;;;;1.10;1.10;;;;;;;;;;5096440;28;20441;-81
2022/09/27 00:02:36;;;;;;;1.07;0.97;;;;;;;;;;5095320;28;20437;-79
2022/09/27 00:05:02;;;;;;;1.10;0.93;;;;;;;;;;5096274;28;20401;-81
2022/09/27 00:07:28;;;;;;;1.10;1.00;;;;;;;;;;5096322;28;20509;-78
2022/09/27 00:09:54;;;;;;;1.97;1.13;;;;;;;;;;5096198;28;20405;-82
2022/09/27 00:12:20;;;;;;;1.37;1.30;;;;;;;;;;5094834;28;20427;-80
2022/09/27 00:14:46;;;;;;;1.10;1.10;;;;;;;;;;5096118;28;20926;-80
2022/09/27 00:17:12;;;;;;;1.40;1.37;;;;;;;;;;5096168;28;20424;-80
2022/09/27 00:19:38;;;;;;;1.20;1.10;;;;;;;;;;5095918;28;20472;-82
2022/09/27 00:22:04;;;;;;;1.10;1.10;;;;;;;;;;5095995;28;20819;-79
2022/09/27 00:24:30;;;;;;;1.40;1.40;;;;;;;;;;5095911;28;20437;-79
2022/09/27 00:26:56;;;;;;;1.17;1.17;;;;;;;;;;5094956;28;20499;-80
2022/09/27 00:29:23;;;;;;;1.30;1.30;;;;;;;;;;5095864;28;20423;-80
2022/09/27 00:31:49;;;;;;;1.20;1.20;;;;;;;;;;5094759;28;20401;-79
2022/09/27 00:34:20;;;;;;;1.40;1.20;;;;;;;;;;5095796;28;20441;-81
2022/09/27 00:36:46;;;;;;;1.10;1.10;;;;;;;;;;5094325;28;20420;-80
2022/09/27 00:39:12;;;;;;;1.23;1.13;;;;;;;;;;5094267;28;21033;-79
2022/09/27 00:41:38;;;;;;;1.30;1.30;;;;;;;;;;5095623;28;20409;-80
2022/09/27 00:44:28;;;;;;;1.20;1.20;;;;;;;;;;5095500;28;20413;-84
2022/09/27 00:47:03;;;;;;;1.40;1.40;;;;;;;;;;5095237;28;20417;-79
2022/09/27 00:49:35;;;;;;;1.17;1.17;;;;;;;;;;5095358;28;20397;-83
2022/09/27 00:52:03;;;;;;;1.10;1.10;;;;;;;;;;5094188;28;20414;-82
2022/09/27 00:54:32;;;;;;;1.67;1.63;;;;;;;;;;5095197;28;20445;-83
2022/09/27 00:56:59;;;;;;;1.27;1.27;;;;;;;;;;5095211;28;20794;-80
2022/09/27 00:59:28;;;;;;;1.33;1.23;;;;;;;;;;5095020;28;20495;-78
2022/09/27 01:01:54;;;;;;;1.40;1.40;;;;;;;;;;5095143;28;20405;-80
2022/09/27 01:04:26;;;;;;;1.50;1.50;;;;;;;;;;5095257;28;20398;-81
2022/09/27 01:06:53;;;;;;;1.40;1.40;;;;;;;;;;5095613;28;20900;-78
2022/09/27 01:09:20;;;;;;;1.17;1.17;;;;;;;;;;5093758;28;20421;-78
2022/09/27 01:12:01;;;;;;;1.00;1.00;;;;;;;;;;5095155;28;20405;-77
2022/09/27 01:14:33;;;;;;;2.50;0.93;;;;;;;;;;5093633;28;20525;-79
2022/09/27 01:17:00;;;;;;;2.83;1.30;;;;;;;;;;5093763;28;20491;-79
2022/09/27 01:19:35;;;;;;;1.30;1.20;;;;;;;;;;5093551;28;20550;-79
2022/09/27 01:22:09;;;;;;;1.10;1.10;;;;;;;;;;5094814;28;20402;-78
2022/09/27 01:24:36;;;;;;;1.10;1.10;;;;;;;;;;5094676;28;20400;-79
2022/09/27 01:27:21;;;;;;;1.10;1.00;;;;;;;;;;5093383;28;20500;-79
2022/09/27 01:29:47;;;;;;;1.30;1.30;;;;;;;;;;5094642;28;20429;-79
2022/09/27 01:32:23;;;;;;;2.50;1.47;;;;;;;;;;5094639;28;20428;-79
2022/09/27 01:34:58;;;;;;;1.30;1.10;;;;;;;;;;5094531;28;20397;-79
2022/09/27 01:37:34;;;;;;;1.67;1.20;;;;;;;;;;5093228;28;20452;-79
2022/09/27 01:40:19;;;;;;;1.30;1.20;;;;;;;;;;5093444;28;21013;-80
2022/09/27 01:42:45;;;;;;;2.00;1.80;;;;;;;;;;5094126;28;20488;-80
2022/09/27 01:45:17;;;;;;;1.23;1.13;;;;;;;;;;5094375;28;20460;-79
2022/09/27 01:47:51;;;;;;;1.00;1.00;;;;;;;;;;5094536;28;20397;-81
2022/09/27 01:50:20;;;;;;;1.30;1.20;;;;;;;;;;5094354;28;20755;-80
2022/09/27 01:53:09;;;;;;;7.60;1.43;;;;;;;;;;5094304;28;20401;-80
2022/09/27 01:55:37;;;;;;;1.93;1.80;;;;;;;;;;5082436;28;20465;-82
2022/09/27 01:58:23;;;;;;;2.00;1.47;;;;;;;;;;5093983;28;20456;-82
2022/09/27 02:00:50;;;;;;;1.50;1.40;;;;;;;;;;5094062;28;20474;-81
2022/09/27 02:03:20;;;;;;;1.40;1.30;;;;;;;;;;5092869;28;20515;-82
2022/09/27 02:05:56;;;;;;;3.97;1.53;;;;;;;;;;5094133;28;20423;-81
2022/09/27 02:08:22;;;;;;;2.70;1.33;;;;;;;;;;5094046;28;20401;-82
2022/09/27 02:10:50;;;;;;;1.60;1.50;;;;;;;;;;5093879;28;20945;-80
2022/09/27 02:13:16;;;;;;;1.60;1.53;;;;;;;;;;5092659;28;20428;-80
2022/09/27 02:15:52;;;;;;;1.70;1.60;;;;;;;;;;5093788;28;20766;-80
2022/09/27 02:18:22;;;;;;;2.87;1.50;;;;;;;;;;5093723;28;20537;-79
2022/09/27 02:20:55;;;;;;;2.80;1.83;;;;;;;;;;5094028;28;20410;-80
2022/09/27 02:23:25;;;;;;;3.33;1.57;;;;;;;;;;5092535;28;20440;-81
2022/09/27 02:25:57;;;;;;;2.07;1.47;;;;;;;;;;5092300;28;20786;-81
2022/09/27 02:28:38;;;;;;;1.60;1.43;;;;;;;;;;5093639;28;20803;-80
2022/09/27 02:31:05;;;;;;;1.33;1.17;;;;;;;;;;5092363;28;20888;-80
2022/09/27 02:33:34;;;;;;;4.40;1.50;;;;;;;;;;5093596;28;20405;-83
2022/09/27 02:36:00;;;;;;;3.97;1.80;;;;;;;;;;5093534;28;20447;-81
2022/09/27 02:38:26;;;;;;;3.00;1.40;;;;;;;;;;5093529;28;20467;-80
2022/09/27 02:40:52;;;;;;;1.30;1.30;;;;;;;;;;5093517;28;20398;-80
2022/09/27 02:43:20;;;;;;;6.27;1.37;;;;;;;;;;5093543;28;20436;-81
2022/09/27 02:46:01;;;;;;;1.63;1.10;;;;;;;;;;5093489;28;20459;-83
2022/09/27 02:48:44;;;;;;;1.50;1.30;;;;;;;;;;5093486;28;20401;-80
2022/09/27 02:51:28;;;;;;;6.87;1.40;;;;;;;;;;5093492;28;20739;-80
2022/09/27 02:54:09;;;;;;;1.37;1.30;;;;;;;;;;5093833;28;20409;-82
2022/09/27 02:56:44;;;;;;;1.90;1.30;;;;;;;;;;5097558;28;20814;-80
2022/09/27 02:59:18;;;;;;;2.63;1.43;;;;;;;;;;5097404;28;20551;-81
2022/09/27 03:01:56;;;;;;;2.90;1.47;;;;;;;;;;5097534;28;20420;-81
2022/09/27 03:04:22;;;;;;;2.73;1.33;;;;;;;;;;5096166;28;20471;-80
2022/09/27 03:06:50;;;;;;;1.77;1.67;;;;;;;;;;5097413;28;20417;-80
2022/09/27 03:09:19;;;;;;;2.00;1.30;;;;;;;;;;5095922;28;20791;-82
2022/09/27 03:11:45;;;;;;;2.27;1.80;;;;;;;;;;5096307;28;20431;-80
2022/09/27 03:14:11;;;;;;;3.70;1.53;;;;;;;;;;5097360;28;20508;-85
2022/09/27 03:16:37;;;;;;;4.80;1.50;;;;;;;;;;5097390;28;20421;-84
2022/09/27 03:19:03;;;;;;;5.03;2.30;;;;;;;;;;5097098;28;20509;-84
2022/09/27 03:21:30;;;;;;;2.07;1.53;;;;;;;;;;5095853;28;20456;-80
2022/09/27 03:23:56;;;;;;;4.67;2.10;;;;;;;;;;5096087;28;20979;-80
2022/09/27 03:26:21;;;;;;;6.97;2.10;;;;;;;;;;5097066;28;20440;-81
2022/09/27 03:28:48;;;;;;;9.80;2.67;;;;;;;;;;5095878;28;20421;-79
2022/09/27 03:31:13;;;;;;;7.10;2.90;;;;;;;;;;5097326;28;20566;-79
2022/09/27 03:33:40;;;;;;;3.23;2.43;;;;;;;;;;5097106;28;20938;-81
2022/09/27 03:36:06;;;;;;;11.90;3.03;;;;;;;;;;5095796;28;20416;-81
2022/09/27 03:38:32;;;;;;;4.77;2.03;;;;;;;;;;5097034;28;20460;-82
2022/09/27 03:40:58;;;;;;;7.87;2.43;;;;;;;;;;5095482;28;20425;-81
2022/09/27 03:43:24;;;;;;;4.73;2.53;;;;;;;;;;5096794;28;20413;-81
2022/09/27 03:45:50;;;;;;;10.00;2.73;;;;;;;;;;5096754;28;20896;-79
2022/09/27 03:48:16;;;;;;;9.47;3.00;;;;;;;;;;5096643;28;20409;-82
2022/09/27 03:50:42;;;;;;;5.17;2.20;;;;;;;;;;5096826;28;20440;-81
2022/09/27 03:53:08;;;;;;;2.70;2.40;;;;;;;;;;5096773;28;20416;-80
2022/09/27 03:55:34;;;;;;;6.33;2.83;;;;;;;;;;5096468;28;20472;-80
2022/09/27 03:58:00;;;;;;;11.03;2.23;;;;;;;;;;5096387;28;20421;-79
2022/09/27 04:00:27;;;;;;;5.87;4.27;;;;;;;;;;5096343;28;20421;-79
2022/09/27 04:02:53;;;;;;;5.90;2.10;;;;;;;;;;5096494;28;20819;-82
2022/09/27 04:05:19;;;;;;;5.53;2.50;;;;;;;;;;5095001;28;20496;-82
2022/09/27 04:07:49;;;;;;;4.83;2.00;;;;;;;;;;5096540;28;20462;-77
2022/09/27 04:10:15;;;;;;;4.47;1.70;;;;;;;;;;5096280;28;20466;-81
2022/09/27 04:12:41;;;;;;;3.90;1.43;;;;;;;;;;5096123;28;20397;-81
2022/09/27 04:15:07;;;;;;;1.40;1.30;;;;;;;;;;5096143;28;20405;-80
2022/09/27 04:17:34;;;;;;;5.87;1.60;;;;;;;;;;5095343;28;20781;-80
2022/09/27 04:20:02;;;;;;;3.33;1.50;;;;;;;;;;5096048;28;20465;-81
2022/09/27 04:22:28;;;;;;;2.37;1.43;;;;;;;;;;5094835;28;20762;-80
2022/09/27 04:24:54;;;;;;;6.23;1.83;;;;;;;;;;5094735;28;20971;-80
2022/09/27 04:27:21;;;;;;;3.33;1.77;;;;;;;;;;5094425;28;20524;-79
2022/09/27 04:29:47;;;;;;;2.70;1.50;;;;;;;;;;5095822;28;20405;-79
2022/09/27 04:32:13;;;;;;;4.20;1.90;;;;;;;;;;5095876;28;20419;-79
2022/09/27 04:37:33;;;;;;;7.17;2.07;;;;;;;;;;5095657;28;20393;-80
2022/09/27 04:39:59;;;;;;;3.50;1.47;;;;;;;;;;5095584;28;20496;-79
2022/09/27 04:42:25;;;;;;;1.73;0.93;;;;;;;;;;5095739;28;20405;-79
2022/09/27 04:44:51;;;;;;;1.67;1.00;;;;;;;;;;5094244;28;20413;-80
2022/09/27 04:47:19;;;;;;;0.70;0.70;;;;;;;;;;5095459;28;20463;-79
2022/09/27 04:49:45;;;;;;;2.37;1.03;;;;;;;;;;5094495;28;20421;-80
2022/09/27 04:52:12;;;;;;;1.10;1.00;;;;;;;;;;5095329;28;20417;-80
2022/09/27 04:54:38;;;;;;;3.07;1.20;;;;;;;;;;5095329;28;20473;-80
2022/09/27 04:57:04;;;;;;;2.00;0.90;;;;;;;;;;5095157;28;20952;-79
2022/09/27 04:59:30;;;;;;;2.77;1.57;;;;;;;;;;5095209;28;20474;-79
2022/09/27 05:01:59;;;;;;;2.90;1.50;;;;;;;;;;5095193;28;20401;-78
2022/09/27 05:04:25;;;;;;;2.23;1.03;;;;;;;;;;5093892;28;20437;-79
2022/09/27 05:06:51;;;;;;;7.23;1.60;;;;;;;;;;5095150;28;20402;-80
2022/09/27 05:09:24;;;;;;;3.77;1.30;;;;;;;;;;5095006;28;20431;-81
2022/09/27 05:11:50;;;;;;;4.50;1.60;;;;;;;;;;5094965;28;20400;-78
2022/09/27 05:14:17;;;;;;;5.30;1.70;;;;;;;;;;5094987;28;20417;-79
2022/09/27 05:16:43;;;;;;;2.60;1.87;;;;;;;;;;5094253;28;20401;-80
2022/09/27 05:19:09;;;;;;;4.30;2.07;;;;;;;;;;5094578;28;20474;-79
2022/09/27 05:21:35;;;;;;;2.53;1.90;;;;;;;;;;5093472;28;20507;-79
2022/09/27 05:24:01;;;;;;;3.90;2.57;;;;;;;;;;5094714;28;20473;-79
2022/09/27 05:26:27;;;;;;;3.53;1.80;;;;;;;;;;5094680;28;20417;-79
2022/09/27 05:29:03;;;;;;;3.33;2.67;;;;;;;;;;5094612;28;20413;-80
2022/09/27 05:31:29;;;;;;;2.20;2.00;;;;;;;;;;5093408;28;20515;-81
2022/09/27 05:33:55;;;;;;;2.03;1.93;;;;;;;;;;5094699;28;20438;-80
2022/09/27 05:36:22;;;;;;;2.20;1.47;;;;;;;;;;5094530;28;20460;-84
2022/09/27 05:38:48;;;;;;;1.30;1.20;;;;;;;;;;5094288;28;20855;-80
2022/09/27 05:41:14;;;;;;;6.07;1.50;;;;;;;;;;5094435;28;20454;-80
2022/09/27 05:43:40;;;;;;;3.43;1.17;;;;;;;;;;5093123;28;20420;-79
2022/09/27 05:46:07;;;;;;;1.53;1.20;;;;;;;;;;5094381;28;20420;-80
2022/09/27 05:48:33;;;;;;;1.00;0.90;;;;;;;;;;5094292;28;20444;-79
2022/09/27 05:50:59;;;;;;;2.93;1.10;;;;;;;;;;5094307;28;20416;-79
2022/09/27 05:53:25;;;;;;;0.90;0.90;;;;;;;;;;5094214;28;20451;-79
2022/09/27 05:55:51;;;;;;;1.27;0.90;;;;;;;;;;5093868;28;20504;-79
2022/09/27 05:58:17;;;;;;;1.93;1.20;;;;;;;;;;5093891;28;20500;-80
2022/09/27 06:00:43;;;;;;;1.00;1.00;;;;;;;;;;5092870;28;20425;-82
2022/09/27 06:03:11;;;;;;;1.27;1.17;;;;;;;;;;5093963;28;20409;-79
2022/09/27 06:05:38;;;;;;;3.93;0.83;;;;;;;;;;5093986;28;20425;-78
2022/09/27 06:08:08;;;;;;;1.80;1.20;;;;;;;;;;5093872;28;20762;-80
2022/09/27 06:10:37;;;;;;;1.47;1.00;;;;;;;;;;5092767;28;20566;-80
2022/09/27 06:13:04;;;;;;;2.23;0.83;;;;;;;;;;5092569;28;20912;-80
2022/09/27 06:15:31;;;;;;;1.33;0.70;;;;;;;;;;5092554;28;20425;-80
2022/09/27 06:18:02;;;;;;;3.20;1.00;;;;;;;;;;5093724;28;20401;-80
2022/09/27 06:20:28;;;;;;;1.03;0.80;;;;;;;;;;5093760;28;20423;-79
2022/09/27 06:22:54;;;;;;;6.43;1.10;;;;;;;;;;5092530;28;20510;-80
2022/09/27 06:25:20;;;;;;;2.60;1.20;;;;;;;;;;5093708;28;20832;-79
2022/09/27 06:27:46;;;;;;;1.13;1.13;;;;;;;;;;5092276;28;20421;-79
2022/09/27 06:30:12;;;;;;;4.93;1.10;;;;;;;;;;5091537;28;20512;-79
2022/09/27 06:32:38;;;;;;;1.10;1.00;;;;;;;;;;5093676;28;20449;-79
2022/09/27 06:35:04;;;;;;;1.00;0.93;;;;;;;;;;5092366;28;20472;-79
2022/09/27 06:37:31;;;;;;;1.27;0.77;;;;;;;;;;5093548;28;20413;-79
2022/09/27 06:39:57;;;;;;;1.73;1.30;;;;;;;;;;5093532;28;20468;-78
2022/09/27 06:42:23;;;;;;;3.80;1.00;;;;;;;;;;5093497;28;20427;-79
2022/09/27 06:44:49;;;;;;;1.13;0.80;;;;;;;;;;5093506;28;20758;-79
2022/09/27 06:47:18;;;;;;;0.70;0.70;;;;;;;;;;5092238;28;20413;-79
2022/09/27 06:49:44;;;;;;;0.80;0.77;;;;;;;;;;5093442;28;20495;-75
2022/09/27 06:52:10;;;;;;;1.27;1.17;;;;;;;;;;5093345;28;20397;-73
2022/09/27 06:54:36;;;;;;;0.70;0.67;;;;;;;;;;5093261;28;20469;-73
2022/09/27 06:57:02;;;;;;;0.77;0.70;;;;;;;;;;5093335;28;20413;-73
2022/09/27 07:02:13;;;;;;;1.57;1.23;;;;;;;;;;5093276;28;20400;-73
2022/09/27 07:04:39;;;;;;;4.60;0.70;;;;;;;;;;5093322;28;20397;-72
2022/09/27 07:07:05;;;;;;;2.13;1.10;;;;;;;;;;5093314;28;20404;-73
2022/09/27 07:09:31;;;;;;;9.03;1.43;;;;;;;;;;5093302;28;20398;-83
2022/09/27 07:11:57;;;;;;;3.27;1.13;;;;;;;;;;5093214;28;20880;-75
2022/09/27 07:14:25;;;;;;;2.70;1.10;;;;;;;;;;5093236;28;20446;-73
2022/09/27 07:16:51;;;;;;;1.13;1.13;;;;;;;;;;5093313;28;20401;-74
2022/09/27 07:19:17;;;;;;;1.50;1.00;;;;;;;;;;5093199;28;20804;-79
2022/09/27 07:21:44;;;;;;;2.60;1.10;;;;;;;;;;5093179;28;20405;-74
2022/09/27 07:24:10;;;;;;;4.83;0.80;;;;;;;;;;5093206;28;20405;-74
2022/09/27 07:26:36;;;;;;;2.13;1.17;;;;;;;;;;5093147;28;20419;-76
2022/09/27 07:29:01;;;;;;;6.03;1.00;;;;;;;;;;5091855;28;20429;-75
2022/09/27 07:31:28;;;;;;;1.73;1.20;;;;;;;;;;5093082;28;20423;-75
2022/09/27 07:33:54;;;;;;;2.50;1.40;;;;;;;;;;5093101;28;20877;-81
2022/09/27 07:36:20;;;;;;;1.60;1.60;;;;;;;;;;5093067;28;20401;-80
2022/09/27 07:38:46;;;;;;;2.00;1.47;;;;;;;;;;5092913;28;20457;-79
2022/09/27 07:41:13;;;;;;;7.30;2.60;;;;;;;;;;5095386;28;20405;-77
2022/09/27 07:43:40;;;;;;;1.53;1.53;;;;;;;;;;5096740;28;20389;-76
2022/09/27 07:46:06;;;;;;;1.90;1.40;;;;;;;;;;5096665;28;20416;-80
2022/09/27 07:48:33;;;;;;;1.83;1.73;;;;;;;;;;5095304;28;20425;-77
2022/09/27 07:50:59;;;;;;;8.70;2.30;;;;;;;;;;5095561;28;20456;-79
2022/09/27 07:53:25;;;;;;;2.30;2.07;;;;;;;;;;5095241;28;20456;-82
2022/09/27 07:55:52;;;;;;;2.33;2.10;;;;;;;;;;5096315;28;20981;-77
2022/09/27 07:58:18;;;;;;;2.53;2.00;;;;;;;;;;5096210;28;20555;-79
2022/09/27 08:00:44;;;;;;;2.70;2.10;;;;;;;;;;5095150;28;20417;-78
2022/09/27 08:03:14;;;;;;;2.50;2.40;;;;;;;;;;5096305;28;20458;-79
2022/09/27 08:05:40;;;;;;;4.53;2.43;;;;;;;;;;5095000;28;20421;-79
2022/09/27 08:08:06;;;;;;;2.90;2.00;;;;;;;;;;5096250;28;20409;-78
2022/09/27 08:10:32;;;;;;;2.30;2.03;;;;;;;;;;5096159;28;20417;-81
2022/09/27 08:13:01;;;;;;;2.53;2.43;;;;;;;;;;5096192;28;20939;-77
2022/09/27 08:15:27;;;;;;;4.43;2.30;;;;;;;;;;5096197;28;20413;-79
2022/09/27 08:17:54;;;;;;;4.23;2.03;;;;;;;;;;5096122;28;20409;-78
2022/09/27 08:20:20;;;;;;;6.73;2.10;;;;;;;;;;5095942;28;20464;-74
2022/09/27 08:22:46;;;;;;;8.07;2.60;;;;;;;;;;5095983;28;20404;-71
2022/09/27 08:25:13;;;;;;;5.20;2.27;;;;;;;;;;5095916;28;20752;-76
2022/09/27 08:27:39;;;;;;;4.53;2.83;;;;;;;;;;5095818;28;20444;-79
2022/09/27 08:30:05;;;;;;;5.40;2.47;;;;;;;;;;5095813;28;20819;-75
2022/09/27 08:32:31;;;;;;;8.43;2.87;;;;;;;;;;5095758;28;20416;-77
2022/09/27 08:34:58;;;;;;;8.57;3.53;;;;;;;;;;5094466;28;20426;-76
2022/09/27 08:37:24;;;;;;;8.07;4.13;;;;;;;;;;5095776;28;20401;-75
2022/09/27 08:39:50;;;;;;;11.03;4.60;;;;;;;;;;5095793;28;21020;-72
2022/09/27 08:42:19;;;;;;;16.63;6.10;;;;;;;;;;5095674;28;20405;-73
2022/09/27 08:44:45;;;;;;;3.43;3.13;;;;;;;;;;5095599;28;20406;-73
2022/09/27 08:47:19;;;;;;;3.50;2.80;;;;;;;;;;5095583;28;20459;-73
2022/09/27 08:49:49;;;;;;;7.20;3.50;;;;;;;;;;5094207;28;20416;-72
2022/09/27 08:52:31;;;;;;;4.73;2.90;;;;;;;;;;5094368;28;20401;-73
2022/09/27 08:54:58;;;;;;;4.57;2.40;;;;;;;;;;5095141;28;20514;-73
2022/09/27 08:57:25;;;;;;;4.20;3.20;;;;;;;;;;5095263;28;20452;-72
2022/09/27 09:00:11;;;;;;;9.33;3.07;;;;;;;;;;5095224;28;20476;-73
2022/09/27 09:02:37;;;;;;;6.00;3.00;;;;;;;;;;5095276;28;20409;-73
2022/09/27 09:05:07;;;;;;;6.87;2.50;;;;;;;;;;5095196;28;20397;-74
2022/09/27 09:07:42;;;;;;;10.50;2.50;;;;;;;;;;5095069;28;20880;-73
2022/09/27 09:12:45;;;;;;;4.27;2.40;;;;;;;;;;5094997;28;20412;-73
2022/09/27 09:13:16;;;;;;;3.80;3.20;;;;;;;;;;5094754;28;20492;-73
2022/09/27 09:15:54;;;;;;;4.13;3.00;;;;;;;;;;5094957;28;20401;-74
2022/09/27 09:18:26;;;;;;;4.03;2.27;;;;;;;;;;5094779;28;20487;-74
2022/09/27 09:21:14;;;;;;;4.33;2.40;;;;;;;;;;5094915;28;20410;-73
2022/09/27 09:24:00;;;;;;;30.60;13.37;;;;;;;;;;5094713;28;20766;-74
2022/09/27 09:26:34;;;;;;;8.10;2.70;;;;;;;;;;5093314;28;20482;-73
2022/09/27 09:29:07;;;;;;;6.80;4.10;;;;;;;;;;5094723;28;20409;-73
2022/09/27 09:31:52;;;;;;;3.23;2.87;;;;;;;;;;5094590;28;20488;-74
2022/09/27 09:34:47;;;;;;;3.90;2.80;;;;;;;;;;5094401;28;20477;-72
2022/09/27 09:37:13;;;;;;;7.73;3.00;;;;;;;;;;5081439;28;20464;-73
2022/09/27 09:39:48;;;;;;;7.13;2.70;;;;;;;;;;5094383;28;20465;-71
2022/09/27 09:42:29;;;;;;;5.60;2.47;;;;;;;;;;5094389;28;20455;-75
2022/09/27 09:45:02;;;;;;;9.03;2.87;;;;;;;;;;5094234;28;20390;-73
2022/09/27 09:47:41;;;;;;;5.13;2.20;;;;;;;;;;5094362;28;20413;-75
2022/09/27 09:50:17;;;;;;;3.97;2.30;;;;;;;;;;5092947;28;20417;-74
2022/09/27 09:52:47;;;;;;;5.03;3.00;;;;;;;;;;5094190;28;20416;-72
2022/09/27 09:55:17;;;;;;;6.37;2.90;;;;;;;;;;5094053;28;20547;-74
2022/09/27 09:57:52;;;;;;;5.67;1.77;;;;;;;;;;5094209;28;20461;-72
2022/09/27 10:00:18;;;;;;;8.13;2.87;;;;;;;;;;5094019;28;20464;-74
2022/09/27 10:02:46;;;;;;;5.10;2.10;;;;;;;;;;5092558;28;20416;-78
2022/09/27 10:05:16;;;;;;;3.37;2.00;;;;;;;;;;5094006;28;20526;-72
2022/09/27 10:07:42;;;;;;;2.10;1.97;;;;;;;;;;5093948;28;20397;-73
2022/09/27 10:10:12;;;;;;;1.40;1.40;;;;;;;;;;5093945;28;20398;-72
2022/09/27 10:12:38;;;;;;;2.03;1.70;;;;;;;;;;5093821;28;20417;-74
2022/09/27 10:15:05;;;;;;;4.30;1.97;;;;;;;;;;5093884;28;20773;-74
2022/09/27 10:17:42;;;;;;;3.80;1.80;;;;;;;;;;5093822;28;20413;-74
2022/09/27 10:20:14;;;;;;;2.37;1.40;;;;;;;;;;5093719;28;20534;-73
2022/09/27 10:22:44;;;;;;;1.50;1.00;;;;;;;;;;5093744;28;20397;-73
2022/09/27 10:25:10;;;;;;;1.47;1.37;;;;;;;;;;5093742;28;20459;-72
2022/09/27 10:27:41;;;;;;;2.17;1.00;;;;;;;;;;5093641;28;20432;-72
2022/09/27 10:30:21;;;;;;;1.40;1.30;;;;;;;;;;5093715;28;20401;-73
2022/09/27 10:32:50;;;;;;;1.33;1.10;;;;;;;;;;5093509;28;20473;-74
2022/09/27 10:35:28;;;;;;;3.67;1.60;;;;;;;;;;5092344;28;20424;-74
2022/09/27 10:37:54;;;;;;;1.63;1.00;;;;;;;;;;5093561;28;20420;-74
2022/09/27 10:40:25;;;;;;;3.20;1.40;;;;;;;;;;5093466;28;20473;-72
2022/09/27 10:42:51;;;;;;;2.10;0.90;;;;;;;;;;5093513;28;20824;-74
2022/09/27 10:45:20;;;;;;;1.17;1.17;;;;;;;;;;5093596;28;20433;-70
2022/09/27 10:47:46;;;;;;;0.70;0.70;;;;;;;;;;5093798;28;20397;-74
2022/09/27 10:50:20;;;;;;;2.93;1.47;;;;;;;;;;5093417;28;20425;-72
2022/09/27 10:52:47;;;;;;;1.37;1.20;;;;;;;;;;5093513;28;21023;-72
2022/09/27 10:55:19;;;;;;;1.17;1.03;;;;;;;;;;5092047;28;20593;-75
2022/09/27 10:57:49;;;;;;;3.03;0.97;;;;;;;;;;5093410;28;20421;-74
2022/09/27 11:00:25;;;;;;;1.13;1.13;;;;;;;;;;5093261;28;20465;-75
2022/09/27 11:02:57;;;;;;;1.33;0.90;;;;;;;;;;5093421;28;20763;-74
2022/09/27 11:05:24;;;;;;;1.00;1.00;;;;;;;;;;5093456;28;20981;-75
2022/09/27 11:07:54;;;;;;;3.80;1.30;;;;;;;;;;5093324;28;20493;-74
2022/09/27 11:10:40;;;;;;;2.00;1.10;;;;;;;;;;5093255;28;20406;-72
2022/09/27 11:13:17;;;;;;;1.53;1.30;;;;;;;;;;5093230;28;20413;-78
2022/09/27 11:16:03;;;;;;;2.13;1.10;;;;;;;;;;5095097;28;20401;-75
2022/09/27 11:18:33;;;;;;;1.70;1.60;;;;;;;;;;5065670;28;20472;-74
2022/09/27 11:20:59;;;;;;;3.03;1.43;;;;;;;;;;5097032;28;20417;-76
2022/09/27 11:23:45;;;;;;;2.30;1.30;;;;;;;;;;5097071;28;20450;-74
2022/09/27 11:26:19;;;;;;;1.47;1.37;;;;;;;;;;5096977;28;20421;-76
2022/09/27 11:29:14;;;;;;;5.80;1.40;;;;;;;;;;5097159;28;20486;-79
2022/09/27 11:32:01;;;;;;;2.47;1.23;;;;;;;;;;5025637;28;20430;-77
2022/09/27 11:34:39;;;;;;;2.70;1.30;;;;;;;;;;5097338;28;20409;-79
2022/09/27 11:37:24;;;;;;;2.90;2.57;;;;;;;;;;5096756;28;20947;-78
2022/09/27 11:39:50;;;;;;;1.80;1.50;;;;;;;;;;5096826;28;20981;-79
2022/09/27 11:42:22;;;;;;;2.53;1.27;;;;;;;;;;5096916;28;20844;-77
2022/09/27 11:44:48;;;;;;;5.90;1.40;;;;;;;;;;5096829;28;20496;-78
2022/09/27 11:47:14;;;;;;;3.13;2.20;;;;;;;;;;5096795;28;20409;-78
2022/09/27 11:49:40;;;;;;;2.73;1.90;;;;;;;;;;5095434;28;20513;-76
2022/09/27 11:52:25;;;;;;;2.27;1.13;;;;;;;;;;5096732;28;20445;-78
2022/09/27 11:55:04;;;;;;;1.73;1.23;;;;;;;;;;5096488;28;20826;-83
2022/09/27 11:57:35;;;;;;;1.30;1.20;;;;;;;;;;5096551;28;20489;-81
2022/09/27 12:00:14;;;;;;;2.53;1.20;;;;;;;;;;5096332;28;20492;-75
2022/09/27 12:02:40;;;;;;;3.07;1.70;;;;;;;;;;5096422;28;20412;-76
2022/09/27 12:05:07;;;;;;;2.70;1.60;;;;;;;;;;5096291;28;20405;-78
2022/09/27 12:07:39;;;;;;;2.93;1.77;;;;;;;;;;5095108;28;20443;-74
2022/09/27 12:10:10;;;;;;;1.13;1.03;;;;;;;;;;5096336;28;20401;-73
2022/09/27 12:12:39;;;;;;;1.60;1.03;;;;;;;;;;5096273;28;20441;-76
2022/09/27 12:15:12;;;;;;;1.43;1.30;;;;;;;;;;5096195;28;20915;-78
2022/09/27 12:17:41;;;;;;;1.57;1.43;;;;;;;;;;5096067;28;20888;-79
2022/09/27 12:20:13;;;;;;;3.07;1.50;;;;;;;;;;5095978;28;20469;-74
2022/09/27 12:22:44;;;;;;;4.63;1.40;;;;;;;;;;5096086;28;20413;-74
2022/09/27 12:25:14;;;;;;;1.30;1.30;;;;;;;;;;5095965;28;20496;-73
2022/09/27 12:27:42;;;;;;;1.50;1.40;;;;;;;;;;5095756;28;20416;-73
2022/09/27 12:30:12;;;;;;;1.70;1.10;;;;;;;;;;5094589;28;20816;-76
2022/09/27 12:32:48;;;;;;;1.23;1.00;;;;;;;;;;5095830;28;20823;-77
2022/09/27 12:35:17;;;;;;;1.13;1.10;;;;;;;;;;5095799;28;20424;-75
2022/09/27 12:37:50;;;;;;;3.67;1.17;;;;;;;;;;5095677;28;20401;-72
2022/09/27 12:40:28;;;;;;;5.93;1.30;;;;;;;;;;5094337;28;20814;-73
2022/09/27 12:43:00;;;;;;;1.50;0.87;;;;;;;;;;5095546;28;20416;-75
2022/09/27 12:45:43;;;;;;;1.60;1.07;;;;;;;;;;5095519;28;20413;-74
2022/09/27 12:48:28;;;;;;;2.00;0.93;;;;;;;;;;5095580;28;20401;-73
2022/09/27 12:51:14;;;;;;;3.70;1.07;;;;;;;;;;5095498;28;20420;-74
2022/09/27 12:53:55;;;;;;;1.10;0.73;;;;;;;;;;5095224;28;20424;-76
2022/09/27 12:56:31;;;;;;;1.03;0.80;;;;;;;;;;5095126;28;20471;-72
2022/09/27 12:59:03;;;;;;;3.50;0.80;;;;;;;;;;5095232;28;20968;-76
2022/09/27 13:01:48;;;;;;;1.20;1.10;;;;;;;;;;5095155;28;20457;-72
2022/09/27 13:04:20;;;;;;;0.80;0.70;;;;;;;;;;5093829;28;20436;-72
2022/09/27 13:07:07;;;;;;;1.37;0.90;;;;;;;;;;5095178;28;20401;-73
2022/09/27 13:09:33;;;;;;;1.13;1.03;;;;;;;;;;5095074;28;20825;-73
2022/09/27 13:12:09;;;;;;;1.00;1.00;;;;;;;;;;5093760;28;20508;-72
2022/09/27 13:14:40;;;;;;;3.07;2.40;;;;;;;;;;5093753;28;20466;-73
2022/09/27 13:17:06;;;;;;;1.97;1.13;;;;;;;;;;5095035;28;20409;-72
2022/09/27 13:19:41;;;;;;;1.50;1.40;;;;;;;;;;5094906;28;20974;-77
2022/09/27 13:22:27;;;;;;;2.87;1.00;;;;;;;;;;5095117;28;20397;-75
2022/09/27 13:24:53;;;;;;;3.67;0.80;;;;;;;;;;5095714;28;20417;-75
2022/09/27 13:27:22;;;;;;;2.00;1.20;;;;;;;;;;5094636;28;20439;-76
2022/09/27 13:29:49;;;;;;;2.20;1.17;;;;;;;;;;5095907;28;20401;-75
2022/09/27 13:32:17;;;;;;;2.00;0.93;;;;;;;;;;5095844;28;20414;-75
2022/09/27 13:34:45;;;;;;;2.27;1.67;;;;;;;;;;5095771;28;20537;-79
2022/09/27 13:37:30;;;;;;;4.53;1.37;;;;;;;;;;5095863;28;20405;-77
2022/09/27 13:40:14;;;;;;;1.00;1.00;;;;;;;;;;5095938;28;20457;-73
2022/09/27 13:42:45;;;;;;;1.00;0.87;;;;;;;;;;5096661;28;20400;-77
2022/09/27 13:45:19;;;;;;;1.90;1.17;;;;;;;;;;5095999;28;20394;-77
2022/09/27 13:47:47;;;;;;;1.00;1.00;;;;;;;;;;5094581;28;20477;-77
2022/09/27 13:50:17;;;;;;;1.17;0.70;;;;;;;;;;5093224;28;20429;-79
2022/09/27 13:52:44;;;;;;;1.90;0.90;;;;;;;;;;5094370;28;20423;-78
2022/09/27 13:55:29;;;;;;;0.83;0.83;;;;;;;;;;5094284;28;20460;-76
2022/09/27 13:57:57;;;;;;;0.70;0.63;;;;;;;;;;5094157;28;20450;-78
2022/09/27 14:00:34;;;;;;;0.83;0.83;;;;;;;;;;5092878;28;20515;-85
2022/09/27 14:03:12;;;;;;;0.67;0.67;;;;;;;;;;5094129;28;20445;-78
2022/09/27 14:05:40;;;;;;;0.60;0.60;;;;;;;;;;5094241;28;20408;-79
2022/09/27 14:08:13;;;;;;;2.10;0.50;;;;;;;;;;5092660;28;20837;-76
2022/09/27 14:10:42;;;;;;;0.50;0.50;;;;;;;;;;5093893;28;20505;-81
2022/09/27 14:13:08;;;;;;;0.77;0.77;;;;;;;;;;5093900;28;20424;-77
2022/09/27 14:15:35;;;;;;;0.40;0.40;;;;;;;;;;5093929;28;20405;-76
2022/09/27 14:18:01;;;;;;;0.50;0.43;;;;;;;;;;5093906;28;20872;-76
2022/09/27 14:20:32;;;;;;;0.60;0.60;;;;;;;;;;5092606;28;21069;-77
2022/09/27 14:23:00;;;;;;;0.50;0.50;;;;;;;;;;5092402;28;20508;-78
2022/09/27 14:25:26;;;;;;;0.40;0.40;;;;;;;;;;5092492;28;20452;-79
2022/09/27 14:27:52;;;;;;;0.60;0.60;;;;;;;;;;5093626;28;20411;-75
2022/09/27 14:30:22;;;;;;;0.70;0.70;;;;;;;;;;5093673;28;20492;-77
2022/09/27 14:32:49;;;;;;;0.50;0.50;;;;;;;;;;5093630;28;20408;-78
2022/09/27 14:38:03;;;;;;;147.40;48.57;;;;;;;;;;5093649;28;20390;-83
2022/09/27 14:40:32;;;;;;;3.77;2.00;;;;;;;;;;5093442;28;20496;-80
2022/09/27 14:42:59;;;;;;;12.67;7.97;;;;;;;;;;5093463;28;20413;-76
2022/09/27 14:45:35;;;;;;;5.33;1.50;;;;;;;;;;5092209;28;20512;-77
2022/09/27 14:48:01;;;;;;;3.50;2.63;;;;;;;;;;5093484;28;20409;-76
2022/09/27 14:50:28;;;;;;;1.20;0.83;;;;;;;;;;5095021;28;20500;-79
2022/09/27 14:52:56;;;;;;;1.63;1.10;;;;;;;;;;5097744;28;20400;-77
2022/09/27 14:55:27;;;;;;;0.80;0.80;;;;;;;;;;5097542;28;20563;-77
2022/09/27 14:57:54;;;;;;;0.70;0.70;;;;;;;;;;5097566;28;20417;-79
2022/09/27 15:00:31;;;;;;;2.10;2.10;;;;;;;;;;5097543;28;20522;-77
2022/09/27 15:02:58;;;;;;;1.20;1.10;;;;;;;;;;5096298;28;20460;-75
2022/09/27 15:05:28;;;;;;;2.83;0.80;;;;;;;;;;5097540;28;20389;-77
2022/09/27 15:07:57;;;;;;;2.93;0.90;;;;;;;;;;5097450;28;20405;-75